Omitama, Japan
Current Conditions -  °F | °C
As of 3:15 AM on Tuesday 27 Jan 2015 (Local Time) from RJAH Reporting Station
Rain Showers Rain Showers  
Wind Chill: 41°   Ceiling: 400
Heat Index: 45°   Visibility: 1.2mi
Dew Point: 43°   Wind: 6mph
Humidity: 93%   Direction: 360°N
Pressure: 29.88"   Gusts: NA
Location:  36.23°N, 140.35°E
Report Text: RJAH 261815Z 36005KT 2000 -SHRA BR SCT003 BKN004 OVC010 07/06 Q1012 RMK 3ST003 5ST004 8CU010 A2989
Loading
Personal Weather Stations






























Interactive Weather Map New forecast layout! Learn more

10-Day Weather Forecast

Advertisements
Track Severe Weather on mobile